createdAt,value
2022-12-03T00:00:04.010Z,84.61
2022-12-03T00:02:33.727Z,84.42
2022-12-03T00:05:01.246Z,84.20
2022-12-03T00:07:28.626Z,84.85
2022-12-03T00:09:56.001Z,85.33
2022-12-03T00:12:24.663Z,86.54
2022-12-03T00:14:51.991Z,86.81
2022-12-03T00:17:19.317Z,86.07
2022-12-03T00:19:47.295Z,86.06
2022-12-03T00:22:14.667Z,85.53
2022-12-03T00:24:42.006Z,85.27
2022-12-03T00:27:09.382Z,85.40
2022-12-03T00:29:38.067Z,85.40
2022-12-03T00:32:05.598Z,85.20
2022-12-03T00:34:32.962Z,84.71
2022-12-03T00:37:00.290Z,85.10
2022-12-03T00:39:27.627Z,84.96
2022-12-03T00:41:54.942Z,85.03
2022-12-03T00:44:22.274Z,85.93
2022-12-03T00:46:50.986Z,85.84
2022-12-03T00:49:18.388Z,85.70
2022-12-03T00:51:45.835Z,85.82
2022-12-03T00:54:13.189Z,86.50
2022-12-03T00:56:40.570Z,86.55
2022-12-03T00:59:07.889Z,86.14
2022-12-03T01:01:35.448Z,85.78
2022-12-03T01:04:04.147Z,85.61
2022-12-03T01:06:31.533Z,85.70
2022-12-03T01:08:58.851Z,85.65
2022-12-03T01:11:41.429Z,85.62
2022-12-03T01:14:09.912Z,86.07
2022-12-03T01:16:37.589Z,85.85
2022-12-03T01:19:07.185Z,85.58
2022-12-03T01:21:34.544Z,85.77
2022-12-03T01:24:01.911Z,85.47
2022-12-03T01:26:29.269Z,86.23
2022-12-03T01:28:56.606Z,86.63
2022-12-03T01:31:41.398Z,86.96
2022-12-03T01:34:10.129Z,86.77
2022-12-03T01:36:37.476Z,85.75
2022-12-03T01:39:05.430Z,86.17
2022-12-03T01:41:33.199Z,86.90
2022-12-03T01:44:00.947Z,87.35
2022-12-03T01:46:32.700Z,88.00
2022-12-03T01:49:00.101Z,88.97
2022-12-03T01:51:28.783Z,87.74
2022-12-03T01:53:56.128Z,87.40
2022-12-03T01:56:23.816Z,86.39
2022-12-03T01:58:51.243Z,85.87
2022-12-03T02:01:19.798Z,85.17
2022-12-03T02:03:47.354Z,85.42
2022-12-03T02:06:16.275Z,84.81
2022-12-03T02:08:45.312Z,84.06
2022-12-03T02:11:17.754Z,84.31
2022-12-03T02:13:45.257Z,83.73
2022-12-03T02:16:12.699Z,84.04
2022-12-03T02:18:40.148Z,83.62
2022-12-03T02:21:11.361Z,85.01
2022-12-03T02:23:42.506Z,84.43
2022-12-03T02:26:11.397Z,84.76
2022-12-03T02:28:39.062Z,84.64
2022-12-03T02:31:06.495Z,83.68
2022-12-03T02:33:33.991Z,84.20
2022-12-03T02:36:03.874Z,84.10
2022-12-03T02:38:33.376Z,83.49
2022-12-03T02:41:04.426Z,83.30
2022-12-03T02:43:32.300Z,84.01
2022-12-03T02:46:00.923Z,84.34
2022-12-03T02:48:30.243Z,84.12
2022-12-03T02:51:00.061Z,84.18
2022-12-03T02:53:28.469Z,83.55
2022-12-03T02:55:56.960Z,83.31
2022-12-03T02:58:24.948Z,84.01
2022-12-03T03:00:54.805Z,83.88
2022-12-03T03:03:23.163Z,83.62
2022-12-03T03:05:51.005Z,83.98
2022-12-03T03:08:19.194Z,84.16
2022-12-03T03:10:47.745Z,84.29
2022-12-03T03:13:17.704Z,84.38
2022-12-03T03:15:45.259Z,84.32
2022-12-03T03:18:15.058Z,84.60
2022-12-03T03:20:42.538Z,84.89
2022-12-03T03:23:15.215Z,84.80
2022-12-03T03:25:44.660Z,85.30
2022-12-03T03:28:12.796Z,84.95
2022-12-03T03:30:40.717Z,84.77
2022-12-03T03:33:08.114Z,84.91
2022-12-03T03:35:36.958Z,85.45
2022-12-03T03:38:04.499Z,85.67
2022-12-03T03:40:32.015Z,85.86
2022-12-03T03:43:00.968Z,85.94
2022-12-03T03:45:29.583Z,86.47
2022-12-03T03:47:58.297Z,85.88
2022-12-03T03:50:26.508Z,84.95
2022-12-03T03:52:55.654Z,85.00
2022-12-03T03:55:22.993Z,85.10
2022-12-03T03:57:50.436Z,84.94
2022-12-03T04:00:18.107Z,85.05
2022-12-03T04:02:45.528Z,84.80
2022-12-03T04:05:16.484Z,85.59
2022-12-03T04:07:43.861Z,85.13
2022-12-03T04:10:27.190Z,84.87
2022-12-03T04:12:57.506Z,85.80
2022-12-03T04:15:24.857Z,85.43
2022-12-03T04:18:06.170Z,84.87
2022-12-03T04:20:33.516Z,85.07
2022-12-03T04:22:59.882Z,85.19
2022-12-03T04:25:45.318Z,85.40
2022-12-03T04:28:30.080Z,84.60
2022-12-03T04:30:57.681Z,85.50
2022-12-03T04:33:42.873Z,86.14
2022-12-03T04:36:10.295Z,86.06
2022-12-03T04:38:37.642Z,86.07
2022-12-03T04:41:06.377Z,85.91
2022-12-03T04:43:34.445Z,86.59
2022-12-03T04:46:02.431Z,86.25
2022-12-03T04:48:29.827Z,86.27
2022-12-03T04:50:57.218Z,85.67
2022-12-03T04:53:24.569Z,86.03
2022-12-03T04:55:51.880Z,86.19
2022-12-03T04:58:20.567Z,86.35
2022-12-03T05:00:47.898Z,85.93
2022-12-03T05:03:15.228Z,85.30
2022-12-03T05:05:42.554Z,85.62
2022-12-03T05:08:09.942Z,86.02
2022-12-03T05:10:37.280Z,86.34
2022-12-03T05:13:04.607Z,85.64
2022-12-03T05:15:33.283Z,85.15
2022-12-03T05:18:00.683Z,85.13
2022-12-03T05:20:45.837Z,85.52
2022-12-03T05:23:18.720Z,85.51
2022-12-03T05:25:46.074Z,85.65
2022-12-03T05:28:13.427Z,87.33
2022-12-03T05:30:42.230Z,86.33
2022-12-03T05:33:09.567Z,86.51
2022-12-03T05:35:36.920Z,85.91
2022-12-03T05:38:04.278Z,85.85
2022-12-03T05:40:31.651Z,86.31
2022-12-03T05:42:58.207Z,86.71
2022-12-03T05:45:26.656Z,87.26
2022-12-03T05:47:56.524Z,87.48
2022-12-03T05:50:25.391Z,86.86
2022-12-03T05:52:52.724Z,86.66
2022-12-03T05:55:20.627Z,86.56
2022-12-03T05:57:48.283Z,85.94
2022-12-03T06:00:17.964Z,86.32
2022-12-03T06:02:45.492Z,86.45
2022-12-03T06:05:15.334Z,86.59
2022-12-03T06:07:43.081Z,86.54
2022-12-03T06:10:11.895Z,86.19
2022-12-03T06:12:39.223Z,86.94
2022-12-03T06:15:07.645Z,86.98
2022-12-03T06:17:34.995Z,86.50
2022-12-03T06:20:02.375Z,86.80
2022-12-03T06:22:31.183Z,85.49
2022-12-03T06:25:02.193Z,85.91
2022-12-03T06:27:33.615Z,85.71
2022-12-03T06:30:00.948Z,85.74
2022-12-03T06:32:28.299Z,85.39
2022-12-03T06:34:55.963Z,85.38
2022-12-03T06:37:23.462Z,85.20
2022-12-03T06:39:52.161Z,85.65
2022-12-03T06:42:19.494Z,84.99
2022-12-03T06:44:46.831Z,85.79
2022-12-03T06:47:14.158Z,85.60
2022-12-03T06:49:41.504Z,85.83
2022-12-03T06:52:08.829Z,85.58
2022-12-03T06:54:36.144Z,85.78
2022-12-03T06:57:04.833Z,85.88
2022-12-03T06:59:34.002Z,85.56
2022-12-03T07:02:01.786Z,85.34
2022-12-03T07:04:29.143Z,85.36
2022-12-03T07:06:56.463Z,85.00
2022-12-03T07:09:23.791Z,85.09
2022-12-03T07:11:51.138Z,85.43
2022-12-03T07:14:19.807Z,85.67
2022-12-03T07:16:47.564Z,85.15
2022-12-03T07:19:14.911Z,85.33
2022-12-03T07:24:34.774Z,85.61
2022-12-03T07:27:02.095Z,85.42
2022-12-03T07:29:30.755Z,85.96
2022-12-03T07:31:58.084Z,85.71
2022-12-03T07:34:25.437Z,85.99
2022-12-03T07:36:52.864Z,86.22
2022-12-03T07:39:20.199Z,86.00
2022-12-03T07:41:47.547Z,86.22
2022-12-03T07:44:15.003Z,86.28
2022-12-03T07:46:44.010Z,86.41
2022-12-03T07:49:12.057Z,85.71
2022-12-03T07:51:39.474Z,84.27
2022-12-03T07:54:06.998Z,84.54
2022-12-03T07:56:34.317Z,84.44
2022-12-03T07:59:01.668Z,84.04
2022-12-03T08:01:29.073Z,84.06
2022-12-03T08:03:57.883Z,83.41
2022-12-03T08:06:25.240Z,83.59
2022-12-03T08:08:52.604Z,83.50
2022-12-03T08:11:19.944Z,83.56
2022-12-03T08:13:47.264Z,83.18
2022-12-03T08:16:16.795Z,83.17
2022-12-03T08:18:44.675Z,83.58
2022-12-03T08:21:15.659Z,83.23
2022-12-03T08:23:43.246Z,83.18
2022-12-03T08:26:13.849Z,82.90
2022-12-03T08:28:41.195Z,82.67
2022-12-03T08:31:18.030Z,82.57
2022-12-03T08:33:45.432Z,82.46
2022-12-03T08:36:17.379Z,82.03
2022-12-03T08:38:48.416Z,82.24
2022-12-03T08:41:36.214Z,82.92
2022-12-03T08:44:12.151Z,82.80
2022-12-03T08:46:39.508Z,82.52
2022-12-03T08:49:09.658Z,83.48
2022-12-03T08:51:38.460Z,83.36
2022-12-03T08:54:08.694Z,83.57
2022-12-03T08:56:37.823Z,83.12
2022-12-03T08:59:19.638Z,83.01
2022-12-03T09:01:48.100Z,83.38
2022-12-03T09:04:19.762Z,84.01
2022-12-03T09:06:48.491Z,83.86
2022-12-03T09:09:15.839Z,84.29
2022-12-03T09:11:44.233Z,84.29
2022-12-03T09:14:18.091Z,84.17
2022-12-03T09:16:46.055Z,84.41
2022-12-03T09:19:13.442Z,84.36
2022-12-03T09:21:40.805Z,83.82
2022-12-03T09:24:09.628Z,84.33
2022-12-03T09:26:37.086Z,84.74
2022-12-03T09:29:08.942Z,85.32
2022-12-03T09:31:42.850Z,85.54
2022-12-03T09:34:10.346Z,85.05
2022-12-03T09:36:37.746Z,84.76
2022-12-03T09:39:05.291Z,84.93
2022-12-03T09:41:33.953Z,84.54
2022-12-03T09:44:04.355Z,84.75
2022-12-03T09:46:32.609Z,84.36
2022-12-03T09:49:01.033Z,84.74
2022-12-03T09:51:31.074Z,84.34
2022-12-03T09:53:59.550Z,84.40
2022-12-03T09:56:26.980Z,83.67
2022-12-03T09:58:55.842Z,83.78
2022-12-03T10:01:26.746Z,84.01
2022-12-03T10:03:56.734Z,84.25
2022-12-03T10:06:24.857Z,83.93
2022-12-03T10:08:54.457Z,83.69
2022-12-03T10:11:23.105Z,82.65
2022-12-03T10:13:51.122Z,83.17
2022-12-03T10:16:20.954Z,83.20
2022-12-03T10:18:50.641Z,83.20
2022-12-03T10:21:19.824Z,82.96
2022-12-03T10:23:50.819Z,82.94
2022-12-03T10:26:38.700Z,83.03
2022-12-03T10:29:12.915Z,82.89
2022-12-03T10:31:41.640Z,83.17
2022-12-03T10:34:09.789Z,83.76
2022-12-03T10:36:37.356Z,83.81
2022-12-03T10:39:10.074Z,84.07
2022-12-03T10:41:37.717Z,83.80
2022-12-03T10:44:12.854Z,84.05
2022-12-03T10:46:40.438Z,82.98
2022-12-03T10:49:15.987Z,83.22
2022-12-03T10:51:43.901Z,83.43
2022-12-03T10:54:17.286Z,83.68
2022-12-03T10:56:45.277Z,83.53
2022-12-03T10:59:15.462Z,83.98
2022-12-03T11:01:44.781Z,84.51
2022-12-03T11:04:19.313Z,84.38
2022-12-03T11:06:46.713Z,84.55
2022-12-03T11:09:17.248Z,84.05
2022-12-03T11:11:44.682Z,84.78
2022-12-03T11:14:12.266Z,84.69
2022-12-03T11:17:09.778Z,84.70
2022-12-03T11:19:51.945Z,84.88
2022-12-03T11:22:37.239Z,83.02
2022-12-03T11:25:23.511Z,82.35
2022-12-03T11:28:05.754Z,82.79
2022-12-03T11:30:48.169Z,82.32
2022-12-03T11:33:22.555Z,82.07
2022-12-03T11:36:07.952Z,82.29
2022-12-03T11:38:52.237Z,82.68
2022-12-03T11:41:21.457Z,82.22
2022-12-03T11:43:59.193Z,83.14
2022-12-03T11:46:27.918Z,82.16
2022-12-03T11:48:56.475Z,82.59
2022-12-03T11:51:25.225Z,82.29
2022-12-03T11:53:55.723Z,81.91
2022-12-03T11:56:25.419Z,82.49
2022-12-03T11:58:58.424Z,82.34
2022-12-03T12:01:38.328Z,82.82
2022-12-03T12:04:06.969Z,82.78
2022-12-03T12:06:42.421Z,82.95
2022-12-03T12:09:11.743Z,82.78
2022-12-03T12:11:40.397Z,82.90
2022-12-03T12:14:08.398Z,84.02
2022-12-03T12:16:40.916Z,84.53
2022-12-03T12:19:26.993Z,84.92
2022-12-03T12:21:54.475Z,84.80
2022-12-03T12:24:40.348Z,84.89
2022-12-03T12:27:08.760Z,85.05
2022-12-03T12:29:36.851Z,85.31
2022-12-03T12:32:12.014Z,85.50
2022-12-03T12:34:39.891Z,86.14
2022-12-03T12:37:10.811Z,85.63
2022-12-03T12:39:39.771Z,84.43
2022-12-03T12:42:19.276Z,84.23
2022-12-03T12:44:46.646Z,84.51
2022-12-03T12:47:14.125Z,84.96
2022-12-03T12:49:41.540Z,85.38
2022-12-03T12:52:13.071Z,85.11
2022-12-03T12:54:41.931Z,85.19
2022-12-03T12:57:13.198Z,85.54
2022-12-03T12:59:40.674Z,84.90
2022-12-03T13:02:24.963Z,85.45
2022-12-03T13:04:52.503Z,85.22
2022-12-03T13:07:19.887Z,85.63
2022-12-03T13:09:54.760Z,85.70
2022-12-03T13:12:23.374Z,85.52
2022-12-03T13:14:52.042Z,85.91
2022-12-03T13:17:22.463Z,85.99
2022-12-03T13:19:56.830Z,85.32
2022-12-03T13:22:31.058Z,85.62
2022-12-03T13:25:04.321Z,86.59
2022-12-03T13:27:32.313Z,86.75
2022-12-03T13:30:01.085Z,87.16
2022-12-03T13:32:30.782Z,87.43
2022-12-03T13:35:05.486Z,87.17
2022-12-03T13:37:33.240Z,87.37
2022-12-03T13:40:09.134Z,87.81
2022-12-03T13:42:39.196Z,88.60
2022-12-03T13:45:24.587Z,88.10
2022-12-03T13:47:54.958Z,88.08
2022-12-03T13:50:29.707Z,87.81
2022-12-03T13:52:57.583Z,88.55
2022-12-03T13:55:27.816Z,88.83
2022-12-03T13:57:55.728Z,89.02
2022-12-03T14:00:23.935Z,89.04
2022-12-03T14:02:51.335Z,88.85
2022-12-03T14:05:18.920Z,87.82
2022-12-03T14:07:46.312Z,88.57
2022-12-03T14:10:13.941Z,88.04
2022-12-03T14:12:42.687Z,87.70
2022-12-03T14:15:10.717Z,87.54
2022-12-03T14:17:38.042Z,87.89
2022-12-03T14:20:06.008Z,86.38
2022-12-03T14:22:33.514Z,86.22
2022-12-03T14:25:00.871Z,86.61
2022-12-03T14:27:28.391Z,86.38
2022-12-03T14:29:58.142Z,86.60
2022-12-03T14:32:25.539Z,86.23
2022-12-03T14:34:55.901Z,85.79
2022-12-03T14:37:23.230Z,85.29
2022-12-03T14:39:50.596Z,85.99
2022-12-03T14:42:18.257Z,85.95
2022-12-03T14:44:46.271Z,85.97
2022-12-03T14:47:15.913Z,86.13
2022-12-03T14:49:43.273Z,86.16
2022-12-03T14:52:12.454Z,85.85
2022-12-03T14:54:41.986Z,86.38
2022-12-03T14:57:09.680Z,86.62
2022-12-03T14:59:37.062Z,86.93
2022-12-03T15:02:04.475Z,86.58
2022-12-03T15:04:33.174Z,86.58
2022-12-03T15:07:00.485Z,86.78
2022-12-03T15:09:27.824Z,87.25
2022-12-03T15:11:55.181Z,87.13
2022-12-03T15:14:22.556Z,87.31
2022-12-03T15:16:49.967Z,87.14
2022-12-03T15:19:18.398Z,87.69
2022-12-03T15:21:47.047Z,87.88
2022-12-03T15:24:14.425Z,87.83
2022-12-03T15:26:41.750Z,88.06
2022-12-03T15:29:09.091Z,88.33
2022-12-03T15:31:36.566Z,88.48
2022-12-03T15:34:04.050Z,88.52
2022-12-03T15:36:31.377Z,87.97
2022-12-03T15:39:00.092Z,88.15
2022-12-03T15:41:29.801Z,88.13
2022-12-03T15:43:58.175Z,88.39
2022-12-03T15:46:26.022Z,88.38
2022-12-03T15:48:53.514Z,88.29
2022-12-03T15:51:21.166Z,88.07
2022-12-03T15:53:48.527Z,87.86
2022-12-03T15:56:17.170Z,87.38
2022-12-03T15:58:44.550Z,87.96
2022-12-03T16:01:13.313Z,88.20
2022-12-03T16:03:41.246Z,87.48
2022-12-03T16:06:08.738Z,87.13
2022-12-03T16:08:36.076Z,87.20
2022-12-03T16:11:03.399Z,87.85
2022-12-03T16:13:32.086Z,87.82
2022-12-03T16:15:59.474Z,88.17
2022-12-03T16:18:26.847Z,88.19
2022-12-03T16:20:54.186Z,87.98
2022-12-03T16:23:21.526Z,87.65
2022-12-03T16:25:48.879Z,87.10
2022-12-03T16:28:16.207Z,87.42
2022-12-03T16:30:44.894Z,87.40
2022-12-03T16:33:12.246Z,87.12
2022-12-03T16:35:39.710Z,87.38
2022-12-03T16:38:07.133Z,87.58
2022-12-03T16:40:34.445Z,87.89
2022-12-03T16:43:03.275Z,88.01
2022-12-03T16:46:02.291Z,87.73
2022-12-03T16:48:31.093Z,87.82
2022-12-03T16:50:58.409Z,87.95
2022-12-03T16:53:25.751Z,88.18
2022-12-03T16:55:53.088Z,88.02
2022-12-03T16:58:21.289Z,88.43
2022-12-03T17:00:48.782Z,87.93
2022-12-03T17:03:17.637Z,87.99
2022-12-03T17:05:46.734Z,87.92
2022-12-03T17:08:14.651Z,88.13
2022-12-03T17:10:42.282Z,88.47
2022-12-03T17:13:10.710Z,88.24
2022-12-03T17:15:38.759Z,87.65
2022-12-03T17:18:06.846Z,87.62
2022-12-03T17:20:34.730Z,87.76
2022-12-03T17:23:03.670Z,88.50
2022-12-03T17:25:31.055Z,88.05
2022-12-03T17:27:58.428Z,87.99
2022-12-03T17:30:25.773Z,87.90
2022-12-03T17:32:53.101Z,87.98
2022-12-03T17:35:20.491Z,88.47
2022-12-03T17:37:47.820Z,87.59
2022-12-03T17:40:17.121Z,88.29
2022-12-03T17:42:44.510Z,87.86
2022-12-03T17:45:26.892Z,88.13
2022-12-03T17:47:54.221Z,87.87
2022-12-03T17:50:21.564Z,88.03
2022-12-03T17:52:48.886Z,88.08
2022-12-03T17:55:26.794Z,87.99
2022-12-03T17:57:58.683Z,87.67
2022-12-03T18:00:26.036Z,87.60
2022-12-03T18:02:53.365Z,87.64
2022-12-03T18:05:20.844Z,87.35
2022-12-03T18:07:48.318Z,87.18
2022-12-03T18:10:16.042Z,86.79
2022-12-03T18:12:44.747Z,87.16
2022-12-03T18:15:12.299Z,86.99
2022-12-03T18:17:39.650Z,87.00
2022-12-03T18:20:07.767Z,86.70
2022-12-03T18:22:35.159Z,86.49
2022-12-03T18:25:02.559Z,86.15
2022-12-03T18:27:29.966Z,86.59
2022-12-03T18:29:58.705Z,85.99
2022-12-03T18:32:29.334Z,86.61
2022-12-03T18:34:57.345Z,86.22
2022-12-03T18:37:26.949Z,86.12
2022-12-03T18:39:54.654Z,86.51
2022-12-03T18:42:23.044Z,86.29
2022-12-03T18:44:51.531Z,86.66
2022-12-03T18:47:21.211Z,86.58
2022-12-03T18:49:48.951Z,86.63
2022-12-03T18:52:17.052Z,86.39
2022-12-03T18:54:44.540Z,86.17
2022-12-03T18:57:11.879Z,86.54
2022-12-03T18:59:41.578Z,86.43
2022-12-03T19:02:12.926Z,86.64
2022-12-03T19:04:41.683Z,86.00
2022-12-03T19:07:09.550Z,86.40
2022-12-03T19:09:36.939Z,85.71
2022-12-03T19:12:05.289Z,86.13
2022-12-03T19:14:35.010Z,86.14
2022-12-03T19:17:02.363Z,86.48
2022-12-03T19:19:29.940Z,86.84
2022-12-03T19:21:58.661Z,86.51
2022-12-03T19:24:26.075Z,86.59
2022-12-03T19:26:55.299Z,86.37
2022-12-03T19:29:23.285Z,86.58
2022-12-03T19:31:50.918Z,86.70
2022-12-03T19:34:18.461Z,86.09
2022-12-03T19:36:46.090Z,86.46
2022-12-03T19:39:14.872Z,87.02
2022-12-03T19:41:43.666Z,87.23
2022-12-03T19:44:12.965Z,87.31
2022-12-03T19:46:40.292Z,86.75
2022-12-03T19:49:07.932Z,86.87
2022-12-03T19:51:36.121Z,87.19
2022-12-03T19:54:04.245Z,87.02
2022-12-03T19:56:32.938Z,87.17
2022-12-03T19:59:00.302Z,87.15
2022-12-03T20:01:28.572Z,86.99
2022-12-03T20:03:56.870Z,87.27
2022-12-03T20:06:25.337Z,87.35
2022-12-03T20:08:56.081Z,87.84
2022-12-03T20:11:25.035Z,87.78
2022-12-03T20:13:55.274Z,87.25
2022-12-03T20:16:23.025Z,87.60
2022-12-03T20:18:50.855Z,87.22
2022-12-03T20:21:19.059Z,86.96
2022-12-03T20:23:46.811Z,86.70
2022-12-03T20:26:15.000Z,86.65
2022-12-03T20:28:42.406Z,86.25
2022-12-03T20:31:13.389Z,86.32
2022-12-03T20:33:41.821Z,86.42
2022-12-03T20:36:10.175Z,86.14
2022-12-03T20:38:37.723Z,86.91
2022-12-03T20:41:05.906Z,86.53
2022-12-03T20:43:33.245Z,87.05
2022-12-03T20:46:06.850Z,86.84
2022-12-03T20:48:35.785Z,87.28
2022-12-03T20:51:04.163Z,87.48
2022-12-03T20:53:35.507Z,87.27
2022-12-03T20:56:03.297Z,87.52
2022-12-03T20:58:30.924Z,87.12
2022-12-03T21:01:12.533Z,87.74
2022-12-03T21:03:44.629Z,87.51
2022-12-03T21:06:12.370Z,87.47
2022-12-03T21:08:41.961Z,87.85
2022-12-03T21:11:10.204Z,87.22
2022-12-03T21:13:40.970Z,87.47
2022-12-03T21:16:09.467Z,87.62
2022-12-03T21:18:36.893Z,88.09
2022-12-03T21:21:09.483Z,87.59
2022-12-03T21:23:36.813Z,87.98
2022-12-03T21:26:08.485Z,88.50
2022-12-03T21:28:36.032Z,88.43
2022-12-03T21:31:04.561Z,88.65
2022-12-03T21:33:32.365Z,88.65
2022-12-03T21:36:00.233Z,88.48
2022-12-03T21:38:29.299Z,88.20
2022-12-03T21:40:57.026Z,89.19
2022-12-03T21:43:24.572Z,88.61
2022-12-03T21:45:52.515Z,89.50
2022-12-03T21:48:20.465Z,89.72
2022-12-03T21:51:00.046Z,89.70
2022-12-03T21:53:28.896Z,90.00
2022-12-03T21:55:56.424Z,90.26
2022-12-03T21:58:23.767Z,90.48
2022-12-03T22:00:51.184Z,91.00
2022-12-03T22:03:18.786Z,90.70
2022-12-03T22:05:46.122Z,90.64
2022-12-03T22:08:13.770Z,90.67
2022-12-03T22:10:42.698Z,90.35
2022-12-03T22:13:10.055Z,90.46
2022-12-03T22:15:38.745Z,90.80
2022-12-03T22:18:06.266Z,90.66
2022-12-03T22:20:33.633Z,90.50
2022-12-03T22:23:01.100Z,90.80
2022-12-03T22:25:28.665Z,90.60
2022-12-03T22:27:57.330Z,90.82
2022-12-03T22:30:24.694Z,90.75
2022-12-03T22:32:52.069Z,90.80
2022-12-03T22:35:19.420Z,90.51
2022-12-03T22:37:46.755Z,90.13
2022-12-03T22:40:14.223Z,90.24
2022-12-03T22:42:44.040Z,91.00
2022-12-03T22:45:16.544Z,91.01
2022-12-03T22:47:43.911Z,90.81
2022-12-03T22:50:11.533Z,90.47
2022-12-03T22:52:38.850Z,90.92
2022-12-03T22:55:06.663Z,90.99
2022-12-03T22:57:34.008Z,91.14
2022-12-03T23:00:01.331Z,90.96
2022-12-03T23:02:30.050Z,90.77
2022-12-03T23:04:57.421Z,90.91
2022-12-03T23:07:24.859Z,90.88
2022-12-03T23:09:52.361Z,90.75
2022-12-03T23:12:19.819Z,90.93
2022-12-03T23:14:47.176Z,91.61
2022-12-03T23:17:14.511Z,91.41
2022-12-03T23:19:43.251Z,91.53
2022-12-03T23:22:10.562Z,91.49
2022-12-03T23:24:38.025Z,91.84
2022-12-03T23:27:05.426Z,92.26
2022-12-03T23:29:34.925Z,92.03
2022-12-03T23:32:02.255Z,91.49
2022-12-03T23:34:29.643Z,91.37
2022-12-03T23:36:58.352Z,91.45
2022-12-03T23:39:25.680Z,91.64
2022-12-03T23:41:53.151Z,91.04
2022-12-03T23:44:20.500Z,90.37
2022-12-03T23:46:47.992Z,90.89
2022-12-03T23:49:15.370Z,91.05
2022-12-03T23:51:42.702Z,90.21
2022-12-03T23:54:12.142Z,89.71
2022-12-03T23:56:40.882Z,89.20
2022-12-03T23:59:08.185Z,88.94
